createdAt,value
2018-04-10T00:00:28.448Z,16.30
2018-04-10T00:01:28.456Z,16.27
2018-04-10T00:02:28.480Z,16.25
2018-04-10T00:03:28.462Z,16.22
2018-04-10T00:04:28.458Z,16.01
2018-04-10T00:05:28.487Z,16.09
2018-04-10T00:06:28.493Z,16.11
2018-04-10T00:07:28.454Z,16.12
2018-04-10T00:08:28.458Z,16.16
2018-04-10T00:09:28.519Z,16.20
2018-04-10T00:10:28.483Z,16.12
2018-04-10T00:11:28.516Z,16.06
2018-04-10T00:12:28.476Z,15.89
2018-04-10T00:13:28.492Z,15.94
2018-04-10T00:14:28.458Z,15.97
2018-04-10T00:15:28.456Z,15.97
2018-04-10T00:16:28.475Z,16.01
2018-04-10T00:17:28.462Z,15.93
2018-04-10T00:18:28.456Z,15.96
2018-04-10T00:19:28.478Z,16.00
2018-04-10T00:20:28.471Z,15.93
2018-04-10T00:21:28.465Z,15.93
2018-04-10T00:22:28.495Z,15.93
2018-04-10T00:23:28.471Z,15.93
2018-04-10T00:24:28.484Z,15.93
2018-04-10T00:25:28.492Z,15.92
2018-04-10T00:26:28.469Z,15.94
2018-04-10T00:27:28.495Z,15.96
2018-04-10T00:28:28.511Z,15.93
2018-04-10T00:29:28.464Z,15.94
2018-04-10T00:30:28.471Z,15.94
2018-04-10T00:31:28.475Z,15.94
2018-04-10T00:32:28.460Z,16.01
2018-04-10T00:33:28.468Z,15.93
2018-04-10T00:34:28.470Z,15.78
2018-04-10T00:35:28.477Z,15.86
2018-04-10T00:36:28.459Z,15.85
2018-04-10T00:37:28.465Z,15.81
2018-04-10T00:38:28.466Z,15.84
2018-04-10T00:39:28.489Z,15.85
2018-04-10T00:40:28.489Z,15.85
2018-04-10T00:41:28.477Z,15.82
2018-04-10T00:42:28.481Z,15.78
2018-04-10T00:43:28.482Z,15.84
2018-04-10T00:44:28.467Z,15.72
2018-04-10T00:45:28.483Z,15.81
2018-04-10T00:46:28.481Z,15.74
2018-04-10T00:47:28.472Z,15.76
2018-04-10T00:48:28.464Z,15.85
2018-04-10T00:49:28.472Z,15.86
2018-04-10T00:50:28.467Z,15.82
2018-04-10T00:51:28.465Z,15.89
2018-04-10T00:52:28.468Z,15.79
2018-04-10T00:53:28.472Z,15.79
2018-04-10T00:54:28.475Z,15.68
2018-04-10T00:55:28.478Z,15.70
2018-04-10T00:56:28.471Z,15.72
2018-04-10T00:57:28.493Z,15.66
2018-04-10T00:58:28.487Z,15.61
2018-04-10T00:59:28.484Z,15.63
2018-04-10T01:00:28.467Z,15.67
2018-04-10T01:01:28.470Z,15.60
2018-04-10T01:02:28.503Z,15.68
2018-04-10T01:03:28.467Z,15.68
2018-04-10T01:04:28.471Z,15.72
2018-04-10T01:05:28.465Z,15.76
2018-04-10T01:06:28.464Z,15.81
2018-04-10T01:07:28.491Z,15.70
2018-04-10T01:08:28.470Z,15.49
2018-04-10T01:09:28.484Z,15.61
2018-04-10T01:10:28.477Z,15.52
2018-04-10T01:11:28.502Z,15.52
2018-04-10T01:12:28.486Z,15.49
2018-04-10T01:13:28.493Z,15.64
2018-04-10T01:14:28.511Z,15.63
2018-04-10T01:15:28.470Z,15.68
2018-04-10T01:16:28.505Z,15.70
2018-04-10T01:17:28.490Z,15.60
2018-04-10T01:18:28.467Z,15.68
2018-04-10T01:19:28.467Z,15.56
2018-04-10T01:20:28.470Z,15.61
2018-04-10T01:21:28.469Z,15.60
2018-04-10T01:22:28.493Z,15.57
2018-04-10T01:23:28.489Z,15.57
2018-04-10T01:24:28.475Z,15.57
2018-04-10T01:25:28.481Z,15.51
2018-04-10T01:26:28.500Z,15.45
2018-04-10T01:27:28.502Z,15.54
2018-04-10T01:28:28.505Z,15.49
2018-04-10T01:29:28.501Z,15.41
2018-04-10T01:30:28.516Z,15.54
2018-04-10T01:31:28.477Z,15.51
2018-04-10T01:32:28.484Z,15.57
2018-04-10T01:33:28.490Z,15.48
2018-04-10T01:34:28.481Z,15.56
2018-04-10T01:35:28.470Z,15.49
2018-04-10T01:36:28.480Z,15.56
2018-04-10T01:38:49.605Z,15.54
2018-04-10T01:39:49.586Z,15.49
2018-04-10T01:40:49.600Z,15.48
2018-04-10T01:41:49.600Z,15.36
2018-04-10T01:42:49.558Z,15.38
2018-04-10T01:43:49.597Z,15.38
2018-04-10T01:44:59.232Z,15.41
2018-04-10T01:46:43.019Z,15.51
2018-04-10T01:47:42.984Z,15.51
2018-04-10T01:48:42.971Z,15.60
2018-04-10T01:49:43.018Z,15.46
2018-04-10T01:50:42.991Z,15.31
2018-04-10T01:51:43.002Z,15.46
2018-04-10T01:52:42.962Z,15.41
2018-04-10T01:53:43.003Z,15.33
2018-04-10T01:54:43.011Z,15.31
2018-04-10T01:55:42.963Z,15.36
2018-04-10T01:56:42.965Z,15.38
2018-04-10T01:57:42.964Z,15.38
2018-04-10T01:58:42.964Z,15.28
2018-04-10T01:59:42.988Z,15.27
2018-04-10T02:00:42.959Z,15.35
2018-04-10T02:01:42.962Z,15.31
2018-04-10T02:02:42.973Z,15.38
2018-04-10T02:03:42.996Z,15.39
2018-04-10T02:04:42.976Z,15.36
2018-04-10T02:05:42.990Z,15.30
2018-04-10T02:06:42.964Z,15.38
2018-04-10T02:07:42.959Z,15.38
2018-04-10T02:08:42.962Z,15.33
2018-04-10T02:09:42.982Z,15.51
2018-04-10T02:10:42.961Z,15.46
2018-04-10T02:11:42.968Z,15.48
2018-04-10T02:12:43.111Z,15.36
2018-04-10T02:13:42.966Z,15.39
2018-04-10T02:14:42.962Z,15.39
2018-04-10T02:15:42.962Z,15.28
2018-04-10T02:16:42.962Z,15.30
2018-04-10T02:17:43.009Z,15.30
2018-04-10T02:18:42.994Z,15.26
2018-04-10T02:19:42.991Z,15.30
2018-04-10T02:20:42.983Z,15.28
2018-04-10T02:21:43.022Z,15.41
2018-04-10T02:22:43.002Z,15.28
2018-04-10T02:23:42.990Z,15.36
2018-04-10T02:24:42.973Z,15.28
2018-04-10T02:25:42.963Z,15.31
2018-04-10T02:26:43.049Z,15.30
2018-04-10T02:27:42.971Z,15.26
2018-04-10T02:28:42.968Z,15.30
2018-04-10T02:29:42.964Z,15.23
2018-04-10T02:30:42.970Z,15.21
2018-04-10T02:31:42.966Z,15.24
2018-04-10T02:32:42.981Z,15.17
2018-04-10T02:33:42.971Z,15.31
2018-04-10T02:34:42.982Z,15.28
2018-04-10T02:35:42.983Z,15.12
2018-04-10T02:36:42.991Z,15.11
2018-04-10T02:37:42.996Z,15.09
2018-04-10T02:38:42.965Z,15.12
2018-04-10T02:39:42.971Z,15.06
2018-04-10T02:40:42.962Z,15.11
2018-04-10T02:41:42.981Z,15.17
2018-04-10T02:42:42.976Z,15.19
2018-04-10T02:43:42.964Z,15.21
2018-04-10T02:44:42.960Z,15.11
2018-04-10T02:45:42.963Z,15.09
2018-04-10T02:46:42.968Z,15.09
2018-04-10T02:47:42.971Z,15.03
2018-04-10T02:48:42.983Z,15.09
2018-04-10T02:49:42.964Z,15.06
2018-04-10T02:50:42.969Z,15.08
2018-04-10T02:51:42.994Z,15.09
2018-04-10T02:52:42.996Z,15.05
2018-04-10T02:53:42.991Z,15.05
2018-04-10T02:54:42.963Z,14.98
2018-04-10T02:55:42.958Z,15.08
2018-04-10T02:56:42.976Z,15.03
2018-04-10T02:57:42.990Z,14.99
2018-04-10T02:58:42.972Z,15.05
2018-04-10T02:59:42.961Z,15.05
2018-04-10T03:00:42.963Z,15.06
2018-04-10T03:01:42.970Z,15.17
2018-04-10T03:02:42.973Z,15.23
2018-04-10T03:21:38.537Z,15.02
2018-04-10T03:22:38.499Z,14.94
2018-04-10T03:24:31.951Z,15.11
2018-04-10T03:25:31.937Z,15.03
2018-04-10T03:26:31.949Z,15.09
2018-04-10T03:27:31.926Z,15.05
2018-04-10T03:28:31.955Z,15.06
2018-04-10T03:29:31.920Z,15.09
2018-04-10T03:30:31.918Z,15.03
2018-04-10T03:31:31.931Z,15.02
2018-04-10T03:32:31.915Z,14.99
2018-04-10T03:33:31.916Z,14.94
2018-04-10T03:34:31.913Z,14.94
2018-04-10T03:35:31.933Z,14.94
2018-04-10T03:36:31.917Z,14.94
2018-04-10T03:37:31.930Z,14.84
2018-04-10T03:38:31.902Z,14.81
2018-04-10T03:39:31.934Z,14.83
2018-04-10T03:40:31.912Z,14.78
2018-04-10T03:41:31.900Z,14.80
2018-04-10T03:42:31.908Z,14.80
2018-04-10T03:43:31.906Z,14.80
2018-04-10T03:44:31.911Z,14.72
2018-04-10T03:45:31.907Z,14.75
2018-04-10T03:46:31.939Z,14.78
2018-04-10T03:47:31.897Z,14.74
2018-04-10T03:48:31.911Z,14.61
2018-04-10T03:49:31.911Z,14.52
2018-04-10T03:50:31.909Z,14.43
2018-04-10T03:51:31.915Z,14.46
2018-04-10T03:52:31.908Z,14.39
2018-04-10T03:53:31.889Z,14.52
2018-04-10T03:54:31.892Z,14.49
2018-04-10T03:55:31.910Z,14.50
2018-04-10T03:56:31.892Z,14.43
2018-04-10T03:57:31.910Z,14.43
2018-04-10T03:58:31.894Z,14.39
2018-04-10T03:59:31.920Z,14.37
2018-04-10T04:00:31.893Z,14.38
2018-04-10T04:01:31.890Z,14.38
2018-04-10T04:02:31.896Z,14.43
2018-04-10T04:03:40.547Z,14.37
2018-04-10T04:05:25.299Z,14.35
2018-04-10T04:06:25.303Z,14.35
2018-04-10T04:07:25.295Z,14.37
2018-04-10T04:08:25.298Z,14.29
2018-04-10T04:09:25.291Z,14.25
2018-04-10T04:10:25.285Z,14.13
2018-04-10T04:11:25.286Z,14.17
2018-04-10T04:12:25.496Z,14.13
2018-04-10T04:13:25.309Z,13.99
2018-04-10T04:14:25.282Z,14.04
2018-04-10T04:15:25.319Z,13.77
2018-04-10T04:16:25.380Z,13.84
2018-04-10T04:17:25.284Z,13.63
2018-04-10T04:18:25.282Z,13.56
2018-04-10T04:19:25.278Z,13.49
2018-04-10T04:20:25.299Z,13.56
2018-04-10T04:21:25.285Z,13.70
2018-04-10T04:22:25.278Z,13.76
2018-04-10T04:23:25.278Z,13.49
2018-04-10T04:24:25.282Z,13.59
2018-04-10T04:25:25.285Z,13.63
2018-04-10T04:26:25.299Z,13.56
2018-04-10T04:27:25.305Z,13.54
2018-04-10T04:28:25.274Z,13.61
2018-04-10T04:29:25.273Z,13.52
2018-04-10T04:30:25.268Z,13.55
2018-04-10T04:31:25.329Z,13.61
2018-04-10T04:32:25.276Z,13.71
2018-04-10T04:33:25.264Z,13.74
2018-04-10T04:34:25.270Z,13.83
2018-04-10T04:35:25.261Z,13.88
2018-04-10T04:36:25.265Z,14.01
2018-04-10T04:37:33.918Z,14.07
2018-04-10T04:39:19.768Z,14.02
2018-04-10T04:40:19.699Z,14.02
2018-04-10T04:41:19.666Z,13.94
2018-04-10T04:42:19.694Z,13.95
2018-04-10T04:43:19.676Z,13.96
2018-04-10T04:45:41.746Z,13.76
2018-04-10T04:46:41.701Z,13.79
2018-04-10T04:47:41.694Z,13.77
2018-04-10T04:48:41.703Z,13.74
2018-04-10T04:49:41.698Z,13.80
2018-04-10T04:50:41.692Z,13.88
2018-04-10T04:51:41.694Z,13.84
2018-04-10T04:52:41.706Z,13.79
2018-04-10T04:53:41.690Z,13.76
2018-04-10T04:54:41.694Z,13.77
2018-04-10T04:55:41.685Z,13.59
2018-04-10T04:56:41.690Z,13.56
2018-04-10T04:57:41.690Z,13.55
2018-04-10T04:58:41.693Z,13.49
2018-04-10T04:59:41.693Z,13.33
2018-04-10T05:00:41.740Z,13.33
2018-04-10T05:01:41.704Z,13.33
2018-04-10T05:02:41.680Z,13.49
2018-04-10T05:03:41.677Z,13.56
2018-04-10T05:04:41.678Z,13.56
2018-04-10T05:05:41.676Z,13.59
2018-04-10T05:06:41.683Z,13.62
2018-04-10T05:07:41.677Z,13.46
2018-04-10T05:08:41.675Z,13.22
2018-04-10T05:09:41.702Z,13.24
2018-04-10T05:10:41.701Z,13.32
2018-04-10T05:11:41.670Z,13.32
2018-04-10T05:12:41.680Z,13.32
2018-04-10T05:13:41.686Z,13.37
2018-04-10T05:14:41.693Z,13.25
2018-04-10T05:15:41.712Z,13.27
2018-04-10T05:16:41.721Z,13.22
2018-04-10T05:17:41.666Z,13.20
2018-04-10T05:18:41.661Z,13.18
2018-04-10T05:19:41.672Z,13.29
2018-04-10T05:20:41.661Z,13.21
2018-04-10T05:21:41.658Z,13.21
2018-04-10T05:22:41.900Z,13.25
2018-04-10T05:23:41.677Z,13.38
2018-04-10T05:24:41.699Z,13.32
2018-04-10T05:25:41.677Z,13.33
2018-04-10T05:26:41.658Z,13.30
2018-04-10T05:27:41.676Z,13.29
2018-04-10T05:28:41.668Z,13.30
2018-04-10T05:29:41.654Z,13.25
2018-04-10T05:30:41.679Z,13.36
2018-04-10T05:31:41.644Z,13.52
2018-04-10T05:32:41.640Z,13.54
2018-04-10T05:33:41.646Z,13.67
2018-04-10T05:34:41.671Z,13.80
2018-04-10T05:35:41.690Z,13.87
2018-04-10T05:36:41.672Z,13.88
2018-04-10T05:37:41.664Z,13.88
2018-04-10T05:38:41.779Z,13.81
2018-04-10T05:39:41.667Z,13.84
2018-04-10T05:40:41.685Z,13.79
2018-04-10T05:41:41.691Z,13.88
2018-04-10T05:42:41.629Z,13.92
2018-04-10T05:43:41.661Z,13.99
2018-04-10T05:44:41.626Z,13.88
2018-04-10T05:45:41.679Z,13.91
2018-04-10T05:46:41.687Z,13.95
2018-04-10T05:47:41.665Z,13.95
2018-04-10T05:48:41.690Z,14.02
2018-04-10T05:49:41.645Z,14.16
2018-04-10T05:50:41.623Z,14.16
2018-04-10T05:51:41.639Z,14.14
2018-04-10T05:52:41.649Z,14.38
2018-04-10T05:53:41.645Z,14.34
2018-04-10T05:54:41.614Z,14.38
2018-04-10T05:55:41.621Z,14.43
2018-04-10T05:56:41.645Z,14.49
2018-04-10T05:57:41.612Z,14.46
2018-04-10T05:58:41.619Z,14.31
2018-04-10T05:59:41.612Z,14.28
2018-04-10T06:00:41.732Z,14.14
2018-04-10T06:01:41.608Z,14.14
2018-04-10T06:02:41.614Z,14.09
2018-04-10T06:03:41.612Z,14.06
2018-04-10T06:04:41.621Z,13.98
2018-04-10T06:05:41.608Z,14.19
2018-04-10T06:06:41.614Z,14.16
2018-04-10T06:07:41.646Z,14.32
2018-04-10T06:08:41.607Z,14.46
2018-04-10T06:09:41.628Z,14.49
2018-04-10T06:10:41.656Z,14.60
2018-04-10T06:11:41.602Z,14.75
2018-04-10T06:12:41.622Z,14.81
2018-04-10T06:13:41.607Z,14.78
2018-04-10T06:14:41.603Z,14.87
2018-04-10T06:15:41.602Z,15.03
2018-04-10T06:16:41.637Z,15.03
2018-04-10T06:17:41.647Z,15.02
2018-04-10T06:18:41.599Z,15.05
2018-04-10T06:19:41.605Z,15.08
2018-04-10T06:20:41.600Z,15.26
2018-04-10T06:21:41.604Z,15.38
2018-04-10T06:22:41.620Z,15.38
2018-04-10T06:23:41.602Z,15.39
2018-04-10T06:24:41.623Z,15.46
2018-04-10T06:25:41.605Z,15.49
2018-04-10T06:26:41.599Z,15.49
2018-04-10T06:27:41.602Z,15.33
2018-04-10T06:28:41.614Z,15.36
2018-04-10T06:29:41.770Z,15.26
2018-04-10T06:30:41.666Z,15.27
2018-04-10T06:31:41.623Z,15.26
2018-04-10T06:32:41.649Z,15.28
2018-04-10T06:33:41.605Z,15.21
2018-04-10T06:34:41.645Z,15.19
2018-04-10T06:35:41.625Z,15.30
2018-04-10T06:36:41.660Z,15.27
2018-04-10T06:37:41.652Z,15.30
2018-04-10T06:38:41.683Z,15.36
2018-04-10T06:39:41.637Z,15.56
2018-04-10T06:40:41.615Z,15.61
2018-04-10T06:41:41.606Z,15.66
2018-04-10T06:42:41.604Z,15.48
2018-04-10T06:43:41.613Z,15.43
2018-04-10T06:44:41.604Z,15.49
2018-04-10T06:45:41.605Z,15.61
2018-04-10T06:46:41.629Z,15.63
2018-04-10T06:47:41.625Z,15.66
2018-04-10T06:48:41.624Z,15.64
2018-04-10T06:49:41.609Z,15.72
2018-04-10T06:50:41.644Z,15.57
2018-04-10T06:51:41.620Z,15.54
2018-04-10T06:52:41.617Z,15.70
2018-04-10T06:53:41.620Z,15.70
2018-04-10T06:54:41.644Z,15.68
2018-04-10T06:55:41.636Z,15.68
2018-04-10T06:56:41.614Z,15.72
2018-04-10T06:57:41.633Z,15.70
2018-04-10T06:58:41.612Z,15.68
2018-04-10T06:59:41.674Z,15.79
2018-04-10T07:00:41.625Z,15.67
2018-04-10T07:01:41.716Z,15.79
2018-04-10T07:02:41.697Z,15.86
2018-04-10T07:03:41.630Z,15.78
2018-04-10T07:04:41.662Z,15.75
2018-04-10T07:05:41.657Z,15.70
2018-04-10T07:06:41.667Z,15.67
2018-04-10T07:07:41.629Z,15.74
2018-04-10T07:08:41.651Z,15.94
2018-04-10T07:09:41.649Z,15.70
2018-04-10T07:10:41.639Z,15.89
2018-04-10T07:11:41.679Z,15.97
2018-04-10T07:12:41.659Z,16.07
2018-04-10T07:13:41.672Z,16.06
2018-04-10T07:14:41.628Z,16.12
2018-04-10T07:15:41.642Z,15.89
2018-04-10T07:16:41.651Z,15.96
2018-04-10T07:17:41.709Z,15.92
2018-04-10T07:18:41.696Z,15.93
2018-04-10T07:19:41.649Z,15.84
2018-04-10T07:20:41.688Z,15.79
2018-04-10T07:21:41.640Z,15.82
2018-04-10T07:22:41.644Z,15.72
2018-04-10T07:23:41.639Z,15.72
2018-04-10T07:24:41.660Z,15.86
2018-04-10T07:25:41.641Z,15.86
2018-04-10T07:26:41.652Z,15.82
2018-04-10T07:27:41.690Z,15.59
2018-04-10T07:28:41.660Z,15.68
2018-04-10T07:29:41.656Z,15.85
2018-04-10T07:30:41.693Z,15.57
2018-04-10T07:31:41.636Z,15.45
2018-04-10T07:32:41.642Z,15.42
2018-04-10T07:33:41.658Z,15.60
2018-04-10T07:34:41.651Z,15.84
2018-04-10T07:35:41.644Z,16.09
2018-04-10T07:36:41.671Z,16.01
2018-04-10T07:37:50.347Z,15.82
2018-04-10T07:39:35.075Z,16.07
2018-04-10T07:40:43.733Z,16.16
2018-04-10T07:42:37.510Z,16.26
2018-04-10T07:43:37.159Z,16.35
2018-04-10T07:45:30.929Z,16.55
2018-04-10T07:46:21.944Z,16.55
2018-04-10T07:47:21.876Z,16.74
2018-04-10T07:48:21.912Z,16.74
2018-04-10T07:49:21.866Z,16.78
2018-04-10T07:50:21.888Z,16.67
2018-04-10T07:51:21.888Z,16.52
2018-04-10T07:52:21.857Z,16.55
2018-04-10T07:53:21.912Z,16.50
2018-04-10T07:54:21.879Z,16.70
2018-04-10T07:55:21.853Z,16.73
2018-04-10T07:56:21.856Z,16.52
2018-04-10T07:57:21.882Z,16.60
2018-04-10T07:58:21.857Z,16.85
2018-04-10T07:59:21.855Z,16.73
2018-04-10T08:00:21.862Z,16.77
2018-04-10T08:01:21.861Z,16.88
2018-04-10T08:02:21.865Z,16.86
2018-04-10T08:03:21.874Z,16.88
2018-04-10T08:04:21.876Z,16.73
2018-04-10T08:05:21.884Z,16.96
2018-04-10T08:06:21.872Z,17.13
2018-04-10T08:07:21.873Z,17.26
2018-04-10T08:08:21.873Z,17.08
2018-04-10T08:09:21.880Z,16.99
2018-04-10T08:10:21.953Z,17.15
2018-04-10T08:11:21.882Z,17.23
2018-04-10T08:12:21.915Z,17.23
2018-04-10T08:13:21.903Z,17.44
2018-04-10T08:14:21.900Z,17.43
2018-04-10T08:15:21.906Z,17.30
2018-04-10T08:16:21.919Z,17.38
2018-04-10T08:17:21.917Z,17.55
2018-04-10T08:18:21.891Z,17.57
2018-04-10T08:19:21.948Z,17.66
2018-04-10T08:20:21.890Z,17.71
2018-04-10T08:21:21.960Z,17.81
2018-04-10T08:22:21.906Z,17.67
2018-04-10T08:23:21.903Z,17.43
2018-04-10T08:24:21.962Z,17.15
2018-04-10T08:25:21.947Z,17.33
2018-04-10T08:26:21.911Z,17.29
2018-04-10T08:27:21.915Z,17.29
2018-04-10T08:28:21.933Z,17.14
2018-04-10T08:29:22.046Z,17.25
2018-04-10T08:30:21.953Z,17.26
2018-04-10T08:31:22.061Z,17.38
2018-04-10T08:33:44.142Z,17.44
2018-04-10T08:34:44.082Z,17.38
2018-04-10T08:35:44.079Z,17.11
2018-04-10T08:36:44.103Z,17.26
2018-04-10T08:37:44.085Z,17.64
2018-04-10T08:38:44.134Z,17.76
2018-04-10T08:39:44.122Z,17.84
2018-04-10T08:40:44.140Z,17.41
2018-04-10T08:41:44.088Z,17.59
2018-04-10T08:42:44.110Z,17.78
2018-04-10T08:43:44.089Z,17.88
2018-04-10T08:44:44.131Z,17.92
2018-04-10T08:45:44.185Z,17.81
2018-04-10T08:46:44.104Z,17.40
2018-04-10T08:47:44.107Z,17.54
2018-04-10T08:48:44.099Z,17.70
2018-04-10T08:49:44.121Z,17.81
2018-04-10T08:50:44.110Z,17.66
2018-04-10T08:51:44.110Z,17.50
2018-04-10T08:52:44.157Z,17.47
2018-04-10T08:53:44.126Z,17.64
2018-04-10T08:54:44.133Z,17.71
2018-04-10T08:55:44.122Z,17.71
2018-04-10T08:56:44.136Z,17.92
2018-04-10T08:57:44.130Z,17.64
2018-04-10T08:58:44.144Z,17.54
2018-04-10T08:59:44.119Z,17.54
2018-04-10T09:00:44.128Z,17.67
2018-04-10T09:01:44.140Z,17.73
2018-04-10T09:02:44.128Z,17.81
2018-04-10T09:03:44.144Z,18.13
2018-04-10T09:04:44.161Z,18.12
2018-04-10T09:05:44.151Z,17.99
2018-04-10T09:06:44.139Z,18.00
2018-04-10T09:07:44.135Z,18.17
2018-04-10T09:08:44.186Z,18.40
2018-04-10T09:09:44.157Z,18.57
2018-04-10T09:10:44.149Z,18.33
2018-04-10T09:11:44.146Z,17.82
2018-04-10T09:12:44.156Z,17.84
2018-04-10T09:13:44.182Z,17.84
2018-04-10T09:14:44.154Z,18.06
2018-04-10T09:15:44.172Z,17.82
2018-04-10T09:16:44.178Z,17.95
2018-04-10T09:17:44.184Z,17.81
2018-04-10T09:18:44.176Z,18.13
2018-04-10T09:19:44.160Z,18.06
2018-04-10T09:20:44.176Z,18.02
2018-04-10T09:21:44.171Z,18.24
2018-04-10T09:22:44.188Z,18.31
2018-04-10T09:23:44.172Z,18.04
2018-04-10T09:24:44.250Z,18.15
2018-04-10T09:25:44.291Z,18.09
2018-04-10T09:26:44.296Z,17.94
2018-04-10T09:27:44.212Z,17.94
2018-04-10T09:28:44.183Z,17.73
2018-04-10T09:29:44.204Z,17.81
2018-04-10T09:30:44.222Z,18.21
2018-04-10T09:31:44.184Z,18.43
2018-04-10T09:32:44.189Z,18.55
2018-04-10T09:33:44.223Z,18.52
2018-04-10T09:34:44.200Z,18.59
2018-04-10T09:35:44.208Z,18.62
2018-04-10T09:36:44.218Z,18.73
2018-04-10T09:37:44.217Z,18.83
2018-04-10T09:38:44.224Z,18.58
2018-04-10T09:39:44.205Z,18.55
2018-04-10T09:40:44.240Z,18.64
2018-04-10T09:41:44.232Z,18.59
2018-04-10T09:42:44.206Z,18.65
2018-04-10T09:43:44.224Z,18.67
2018-04-10T09:44:44.227Z,18.55
2018-04-10T09:45:52.906Z,18.55
2018-04-10T09:47:38.650Z,18.68
2018-04-10T09:48:38.642Z,18.61
2018-04-10T09:49:38.611Z,18.79
2018-04-10T09:50:38.611Z,18.67
2018-04-10T09:51:38.787Z,18.21
2018-04-10T09:52:38.648Z,18.21
2018-04-10T09:53:38.694Z,18.40
2018-04-10T09:54:38.626Z,18.43
2018-04-10T09:55:38.701Z,18.46
2018-04-10T09:56:38.650Z,18.54
2018-04-10T09:57:38.628Z,18.46
2018-04-10T09:58:38.629Z,18.57
2018-04-10T09:59:38.664Z,18.46
2018-04-10T10:00:38.629Z,18.58
2018-04-10T10:01:38.714Z,18.42
2018-04-10T10:02:38.731Z,18.39
2018-04-10T10:03:38.708Z,18.24
2018-04-10T10:04:38.655Z,18.22
2018-04-10T10:05:38.678Z,18.18
2018-04-10T10:06:38.651Z,18.33
2018-04-10T10:07:38.672Z,18.44
2018-04-10T10:08:38.654Z,18.43
2018-04-10T10:09:38.657Z,18.52
2018-04-10T10:10:38.665Z,18.59
2018-04-10T10:11:38.663Z,18.57
2018-04-10T10:12:38.674Z,18.57
2018-04-10T10:13:38.718Z,18.65
2018-04-10T10:14:38.670Z,18.79
2018-04-10T10:15:38.736Z,18.64
2018-04-10T10:16:38.736Z,18.76
2018-04-10T10:17:38.673Z,18.72
2018-04-10T10:18:38.681Z,18.70
2018-04-10T10:19:38.689Z,18.84
2018-04-10T10:20:38.744Z,18.94
2018-04-10T10:21:38.744Z,19.10
2018-04-10T10:22:38.746Z,19.06
2018-04-10T10:23:38.688Z,19.11
2018-04-10T10:24:38.702Z,19.17
2018-04-10T10:25:38.830Z,19.06
2018-04-10T10:26:38.705Z,19.20
2018-04-10T10:27:38.717Z,19.10
2018-04-10T10:28:38.737Z,18.97
2018-04-10T10:29:38.728Z,18.97
2018-04-10T10:30:38.729Z,19.06
2018-04-10T10:31:38.727Z,19.01
2018-04-10T10:32:38.757Z,18.86
2018-04-10T10:33:38.756Z,19.01
2018-04-10T10:34:38.789Z,19.20
2018-04-10T10:35:48.115Z,19.20
2018-04-10T10:37:32.291Z,19.15
2018-04-10T10:38:32.195Z,19.13
2018-04-10T10:39:32.160Z,19.29
2018-04-10T10:40:32.183Z,19.36
2018-04-10T10:41:32.174Z,19.23
2018-04-10T10:42:32.601Z,19.24
2018-04-10T10:43:32.208Z,19.10
2018-04-10T10:44:41.202Z,19.21
2018-04-10T10:46:36.380Z,19.35
2018-04-10T10:47:35.596Z,19.32
2018-04-10T10:49:30.520Z,19.36
2018-04-10T10:50:20.089Z,19.40
